Time;durP1;ratioP1;P1;durP2;ratioP2;P2;SDS_P1;SDS_P2;PMS_P1;PMS_P2;Temp;Humidity;BMP_temperature;BMP_pressure;BME280_temperature;BME280_humidity;BME280_pressure;Samples;Min_cycle;Max_cycle;Signal;HPM_P1;HPM_P2
2021/07/17 00:02:57;;;;;;;7.70;3.05;;;;;;;0.01;0.00;59042.03;10320584;28;20054;-66
2021/07/17 00:07:57;;;;;;;9.40;3.08;;;;;;;0.01;0.00;59042.03;10320504;28;20036;-66
2021/07/17 00:12:57;;;;;;;15.07;4.05;;;;;;;0.01;0.00;59042.03;10320160;28;20084;-66
2021/07/17 00:17:56;;;;;;;11.60;3.50;;;;;;;0.01;0.00;59042.03;10301852;28;20044;-66
2021/07/17 00:22:55;;;;;;;12.15;3.92;;;;;;;0.01;0.00;59042.03;10319604;28;20079;-66
2021/07/17 00:27:54;;;;;;;11.65;4.60;;;;;;;0.01;0.00;59042.03;10318547;28;20623;-66
2021/07/17 00:32:54;;;;;;;6.00;3.50;;;;;;;0.01;0.00;59042.03;10318773;28;20186;-67
2021/07/17 00:37:53;;;;;;;6.10;3.58;;;;;;;0.01;0.00;59042.03;10319781;28;20055;-67
2021/07/17 00:42:52;;;;;;;12.95;5.10;;;;;;;0.01;0.00;59042.03;10317791;28;20040;-66
2021/07/17 00:47:52;;;;;;;11.65;4.30;;;;;;;0.01;0.00;59042.03;10318604;28;20045;-67
2021/07/17 00:52:52;;;;;;;10.68;4.13;;;;;;;0.01;0.00;59042.03;10318911;28;20489;-67
2021/07/17 00:57:52;;;;;;;6.30;3.50;;;;;;;0.01;0.00;59042.03;10318320;28;20529;-67
2021/07/17 01:02:56;;;;;;;10.55;3.88;;;;;;;0.01;0.00;59042.03;10318009;28;20470;-67
2021/07/17 01:07:57;;;;;;;7.13;3.55;;;;;;;0.01;0.00;59042.03;10318560;28;20068;-63
2021/07/17 01:12:56;;;;;;;6.88;3.72;;;;;;;0.01;0.00;59042.03;10318396;28;20088;-64
2021/07/17 01:17:56;;;;;;;11.52;4.00;;;;;;;0.01;0.00;59042.03;10316214;28;20498;-64
2021/07/17 01:22:56;;;;;;;10.10;4.32;;;;;;;0.01;0.00;59042.03;10317697;28;20067;-65
2021/07/17 01:27:56;;;;;;;16.55;5.22;;;;;;;0.01;0.00;59042.03;10316788;28;20067;-67
2021/07/17 01:32:55;;;;;;;8.13;5.15;;;;;;;0.01;0.00;59042.03;10317528;28;20533;-65
2021/07/17 01:37:56;;;;;;;7.78;4.07;;;;;;;0.01;0.00;59042.03;10317038;28;20051;-65
2021/07/17 01:42:57;;;;;;;6.65;4.22;;;;;;;0.01;0.00;59042.03;10317605;28;20051;-65
2021/07/17 01:47:56;;;;;;;9.50;4.47;;;;;;;0.01;0.00;59042.03;10316070;28;20059;-66
2021/07/17 01:52:57;;;;;;;7.70;4.20;;;;;;;0.01;0.00;59042.03;10316578;28;20434;-65
2021/07/17 01:57:56;;;;;;;15.57;3.63;;;;;;;0.01;0.00;59042.03;10317196;28;20044;-65
2021/07/17 02:02:55;;;;;;;9.82;3.70;;;;;;;0.01;0.00;59042.03;10316892;28;20072;-65
2021/07/17 02:07:56;;;;;;;10.63;3.53;;;;;;;0.01;0.00;59042.03;10315338;28;20044;-65
2021/07/17 02:13:00;;;;;;;8.32;4.30;;;;;;;0.01;0.00;59042.03;10316706;28;20076;-65
2021/07/17 02:17:59;;;;;;;12.68;3.88;;;;;;;0.01;0.00;59042.03;10315981;28;20044;-65
2021/07/17 02:22:59;;;;;;;10.40;3.65;;;;;;;0.01;0.00;59042.03;10316380;28;20055;-65
2021/07/17 02:27:58;;;;;;;6.18;3.78;;;;;;;0.01;0.00;59042.03;10316326;28;20075;-65
2021/07/17 02:32:57;;;;;;;9.35;3.45;;;;;;;0.01;0.00;59042.03;10315235;28;20091;-65
2021/07/17 02:37:56;;;;;;;6.03;3.30;;;;;;;0.01;0.00;59042.03;10315506;28;20406;-65
2021/07/17 02:42:56;;;;;;;7.85;3.17;;;;;;;0.01;0.00;59042.03;10315510;28;20056;-64
2021/07/17 02:47:54;;;;;;;5.97;3.30;;;;;;;0.01;0.00;59042.03;10315503;28;20449;-64
2021/07/17 02:52:53;;;;;;;8.80;3.30;;;;;;;0.01;0.00;59042.03;10315591;28;20076;-64
2021/07/17 02:57:52;;;;;;;11.27;3.47;;;;;;;0.01;0.00;59042.03;10315628;28;20484;-64
2021/07/17 03:02:52;;;;;;;9.07;4.00;;;;;;;0.01;0.00;59042.03;10314992;28;20045;-65
2021/07/17 03:07:51;;;;;;;8.52;2.88;;;;;;;0.01;0.00;59042.03;10313979;28;20052;-65
2021/07/17 03:12:50;;;;;;;11.13;3.78;;;;;;;0.01;0.00;59042.03;10318886;28;20048;-64
2021/07/17 03:17:49;;;;;;;10.80;4.18;;;;;;;0.01;0.00;59042.03;10321302;28;20056;-64
2021/07/17 03:22:49;;;;;;;7.28;3.25;;;;;;;0.01;0.00;59042.03;10321569;28;20398;-65
2021/07/17 03:27:48;;;;;;;9.30;4.05;;;;;;;0.01;0.00;59042.03;10321607;28;20048;-64
2021/07/17 03:32:46;;;;;;;7.05;4.45;;;;;;;0.01;0.00;59042.03;10321361;28;20118;-64
2021/07/17 03:37:46;;;;;;;12.20;4.35;;;;;;;0.01;0.00;59042.03;10321506;28;20056;-65
2021/07/17 03:42:46;;;;;;;10.95;4.47;;;;;;;0.01;0.00;59042.03;10321346;28;20188;-65
2021/07/17 03:47:45;;;;;;;11.75;4.35;;;;;;;0.01;0.00;59042.03;10321018;28;20049;-64
2021/07/17 03:52:44;;;;;;;9.57;4.35;;;;;;;0.01;0.00;59042.03;10320553;28;20264;-64
2021/07/17 03:57:42;;;;;;;10.30;4.40;;;;;;;0.01;0.00;59042.03;10319070;28;20489;-65
2021/07/17 04:02:44;;;;;;;21.23;5.72;;;;;;;0.01;0.00;59042.03;10317286;28;20514;-65
2021/07/17 04:07:44;;;;;;;12.85;4.43;;;;;;;0.01;0.00;59042.03;10318811;28;20075;-65
2021/07/17 04:12:43;;;;;;;9.90;4.97;;;;;;;0.01;0.00;59042.03;10317274;28;20505;-65
2021/07/17 04:17:44;;;;;;;17.83;4.50;;;;;;;0.01;0.00;59042.03;10318855;28;20513;-65
2021/07/17 04:22:43;;;;;;;11.68;4.93;;;;;;;0.01;0.00;59042.03;10316272;28;20076;-64
2021/07/17 04:27:42;;;;;;;12.45;8.05;;;;;;;0.01;0.00;59042.03;10319493;28;20665;-64
2021/07/17 04:32:40;;;;;;;12.45;4.75;;;;;;;0.01;0.00;59042.03;10318258;28;20076;-64
2021/07/17 04:37:40;;;;;;;13.27;5.03;;;;;;;0.01;0.00;59042.03;10310724;28;20502;-64
2021/07/17 04:42:39;;;;;;;20.95;5.05;;;;;;;0.01;0.00;59042.03;10313426;28;20075;-64
2021/07/17 04:47:38;;;;;;;24.88;8.38;;;;;;;0.01;0.00;59042.03;10314469;28;20068;-63
2021/07/17 04:52:37;;;;;;;11.23;5.57;;;;;;;0.01;0.00;59042.03;10315190;28;20091;-64
2021/07/17 04:57:37;;;;;;;15.52;5.18;;;;;;;0.01;0.00;59042.03;10318189;28;20146;-64
2021/07/17 05:02:46;;;;;;;12.85;4.97;;;;;;;0.01;0.00;59042.03;10318807;28;20040;-65
2021/07/17 05:07:45;;;;;;;14.55;5.15;;;;;;;0.01;0.00;59042.03;10317482;28;20052;-65
2021/07/17 05:12:46;;;;;;;12.30;5.20;;;;;;;0.01;0.00;59042.03;10316791;28;20052;-65
2021/07/17 05:17:45;;;;;;;20.05;5.65;;;;;;;0.01;0.00;59042.03;10318156;28;20044;-65
2021/07/17 05:22:45;;;;;;;14.65;9.80;;;;;;;0.01;0.00;59042.03;10317248;28;20055;-65
2021/07/17 05:27:45;;;;;;;28.35;6.03;;;;;;;0.01;0.00;59042.03;10317788;28;20040;-65
2021/07/17 05:32:44;;;;;;;17.48;5.75;;;;;;;0.01;0.00;59042.03;10316244;28;20056;-65
2021/07/17 05:37:43;;;;;;;20.02;6.65;;;;;;;0.01;0.00;59042.03;10317021;28;20405;-65
2021/07/17 05:42:42;;;;;;;23.85;5.80;;;;;;;0.01;0.00;59042.03;10317496;28;20425;-65
2021/07/17 05:47:42;;;;;;;16.73;5.40;;;;;;;0.01;0.00;59042.03;10317072;28;20040;-65
2021/07/17 05:52:41;;;;;;;15.75;5.28;;;;;;;0.01;0.00;59042.03;10316443;28;20041;-65
2021/07/17 05:57:39;;;;;;;28.90;6.18;;;;;;;0.01;0.00;59042.03;10316462;28;20079;-64
2021/07/17 06:02:39;;;;;;;18.10;5.80;;;;;;;0.01;0.00;59042.03;10317159;28;20036;-64
2021/07/17 06:07:39;;;;;;;13.27;5.85;;;;;;;0.01;0.00;59042.03;10316872;28;20036;-65
2021/07/17 06:12:39;;;;;;;16.90;6.07;;;;;;;0.01;0.00;59042.03;10315940;28;20048;-65
2021/07/17 06:17:38;;;;;;;15.98;6.40;;;;;;;0.01;0.00;59042.03;10316528;28;20048;-65
2021/07/17 06:22:36;;;;;;;12.15;6.25;;;;;;;0.01;0.00;59042.03;10316687;28;20032;-65
2021/07/17 06:27:37;;;;;;;18.95;7.45;;;;;;;0.01;0.00;59042.03;10315388;28;20052;-64
2021/07/17 06:32:35;;;;;;;17.75;7.28;;;;;;;0.01;0.00;59042.03;10315391;28;20090;-64
2021/07/17 06:37:40;;;;;;;13.18;7.35;;;;;;;0.01;0.00;59042.03;10314688;28;20446;-65
2021/07/17 06:42:48;;;;;;;18.92;6.97;;;;;;;0.01;0.00;59042.03;10316140;28;20043;-65
2021/07/17 06:47:47;;;;;;;20.92;7.57;;;;;;;0.01;0.00;59042.03;10320607;28;20044;-65
2021/07/17 06:52:46;;;;;;;10.32;6.18;;;;;;;0.01;0.00;59042.03;10322612;28;20075;-65
2021/07/17 06:57:46;;;;;;;13.32;6.40;;;;;;;0.01;0.00;59042.03;10322624;28;20083;-65
2021/07/17 07:02:45;;;;;;;17.15;7.38;;;;;;;0.01;0.00;59042.03;10323427;28;20049;-64
2021/07/17 07:07:44;;;;;;;15.85;6.68;;;;;;;0.01;0.00;59042.03;10322683;28;20048;-65
2021/07/17 07:12:43;;;;;;;17.38;6.00;;;;;;;0.01;0.00;59042.03;10323030;28;20045;-65
2021/07/17 07:17:46;;;;;;;15.43;5.95;;;;;;;0.01;0.00;59042.03;10322966;28;20071;-65
2021/07/17 07:22:45;;;;;;;16.55;6.57;;;;;;;0.01;0.00;59042.03;10321807;28;20056;-65
2021/07/17 07:27:45;;;;;;;16.65;5.40;;;;;;;0.01;0.00;59042.03;10321903;28;20319;-65
2021/07/17 07:32:43;;;;;;;14.13;5.35;;;;;;;0.01;0.00;59042.03;10321311;28;20539;-65
2021/07/17 07:37:44;;;;;;;14.15;6.10;;;;;;;0.01;0.00;59042.03;10322396;28;20466;-65
2021/07/17 07:42:42;;;;;;;12.38;6.15;;;;;;;0.01;0.00;59042.03;10321954;28;20043;-66
2021/07/17 07:47:41;;;;;;;15.25;5.45;;;;;;;0.01;0.00;59042.03;10321056;28;20076;-65
2021/07/17 07:52:40;;;;;;;18.38;7.05;;;;;;;0.01;0.00;59042.03;10321078;28;20091;-65
2021/07/17 07:57:40;;;;;;;10.73;6.10;;;;;;;0.01;0.00;59042.03;10320186;28;20087;-65
2021/07/17 08:02:40;;;;;;;11.85;5.75;;;;;;;0.01;0.00;59042.03;10321256;28;20036;-65
2021/07/17 08:07:39;;;;;;;7.82;5.05;;;;;;;0.01;0.00;59042.03;10320531;28;20044;-65
2021/07/17 08:12:40;;;;;;;15.65;5.65;;;;;;;0.01;0.00;59042.03;10321095;28;20072;-65
2021/07/17 08:17:39;;;;;;;20.35;5.07;;;;;;;0.01;0.00;59042.03;10320400;28;20037;-65
2021/07/17 08:22:38;;;;;;;9.93;4.70;;;;;;;0.01;0.00;59042.03;10319699;28;20242;-64
2021/07/17 08:27:37;;;;;;;12.77;4.82;;;;;;;0.01;0.00;59042.03;10320130;28;20037;-64
2021/07/17 08:32:37;;;;;;;7.72;4.40;;;;;;;0.01;0.00;59042.03;10318606;28;20060;-65
2021/07/17 08:37:36;;;;;;;15.38;4.75;;;;;;;0.01;0.00;59042.03;10318668;28;20095;-65
2021/07/17 08:42:37;;;;;;;9.60;3.83;;;;;;;0.01;0.00;59042.03;10319472;28;20040;-65
2021/07/17 08:47:40;;;;;;;12.00;4.80;;;;;;;0.01;0.00;59042.03;10318673;28;20059;-65
2021/07/17 08:52:39;;;;;;;;;;;;;;;0.01;0.00;59042.03;10319554;28;20068;-64
2021/07/17 08:57:39;;;;;;;12.60;4.88;;;;;;;0.01;0.00;59042.03;10318944;28;19963;-64
2021/07/17 09:02:40;;;;;;;9.82;5.25;;;;;;;0.01;0.00;59042.03;10318817;28;20040;-65
2021/07/17 09:07:39;;;;;;;12.45;4.13;;;;;;;0.01;0.00;59042.03;10317536;28;20047;-65
2021/07/17 09:12:38;;;;;;;14.07;3.80;;;;;;;0.01;0.00;59042.03;10317784;28;20055;-65
2021/07/17 09:17:36;;;;;;;11.82;4.72;;;;;;;0.01;0.00;59042.03;10317688;28;20547;-65
2021/07/17 09:22:39;;;;;;;10.63;5.22;;;;;;;0.01;0.00;59042.03;10317896;28;20070;-65
2021/07/17 09:27:38;;;;;;;17.90;5.28;;;;;;;0.01;0.00;59042.03;10317929;28;20417;-63
2021/07/17 09:32:37;;;;;;;12.73;5.15;;;;;;;0.01;0.00;59042.03;10316998;28;20072;-63
2021/07/17 09:37:37;;;;;;;10.60;4.38;;;;;;;0.01;0.00;59042.03;10317387;28;20091;-63
2021/07/17 09:42:43;;;;;;;14.85;4.45;;;;;;;0.01;0.00;59042.03;10316272;28;20043;-63
2021/07/17 09:47:42;;;;;;;12.13;4.32;;;;;;;0.01;0.00;59042.03;10316277;28;20075;-63
2021/07/17 09:52:43;;;;;;;14.35;4.15;;;;;;;0.01;0.00;59042.03;10313792;28;20072;-63
2021/07/17 09:57:42;;;;;;;11.95;4.82;;;;;;;0.01;0.00;59042.03;10316257;28;20095;-63
2021/07/17 10:02:41;;;;;;;14.48;3.65;;;;;;;0.01;0.00;59042.03;10316862;28;20045;-63
2021/07/17 10:07:40;;;;;;;14.00;4.18;;;;;;;0.01;0.00;59042.03;10317128;28;20048;-63
2021/07/17 10:12:41;;;;;;;11.35;4.60;;;;;;;0.01;0.00;59042.03;10315579;28;20045;-63
2021/07/17 10:17:41;;;;;;;13.05;5.10;;;;;;;0.01;0.00;59042.03;10316503;28;20076;-63
2021/07/17 10:22:41;;;;;;;11.45;4.45;;;;;;;0.01;0.00;59042.03;10320950;28;20044;-63
2021/07/17 10:27:41;;;;;;;14.48;4.32;;;;;;;0.01;0.00;59042.03;10323478;28;20051;-63
2021/07/17 10:32:40;;;;;;;8.95;3.95;;;;;;;0.01;0.00;59042.03;10323033;28;20083;-63
2021/07/17 10:37:44;;;;;;;7.35;3.75;;;;;;;0.01;0.00;59042.03;10323561;28;20076;-63
2021/07/17 10:42:48;;;;;;;7.65;4.57;;;;;;;0.01;0.00;59042.03;10323307;28;20462;-63
2021/07/17 10:47:47;;;;;;;13.77;5.00;;;;;;;0.01;0.00;59042.03;10322742;28;20056;-63
2021/07/17 10:52:46;;;;;;;10.35;4.65;;;;;;;0.01;0.00;59042.03;10323665;28;20036;-63
2021/07/17 10:57:46;;;;;;;9.27;4.25;;;;;;;0.01;0.00;59042.03;10323355;28;20083;-63
2021/07/17 11:03:14;;;;;;;18.40;4.70;;;;;;;0.01;0.00;59042.03;10323655;28;20485;-63
2021/07/17 11:08:33;;;;;;;13.25;4.10;;;;;;;0.01;0.00;59042.03;10321498;28;20421;-63
2021/07/17 11:13:35;;;;;;;6.57;4.05;;;;;;;0.01;0.00;59042.03;10323653;28;20391;-63
2021/07/17 11:18:40;;;;;;;14.77;5.07;;;;;;;0.01;0.00;59042.03;10322115;28;20084;-63
2021/07/17 11:23:44;;;;;;;13.57;4.97;;;;;;;0.01;0.00;59042.03;10322326;28;20410;-65
2021/07/17 11:29:09;;;;;;;13.80;4.38;;;;;;;0.01;0.00;59042.03;10321296;28;20049;-64
2021/07/17 11:34:51;;;;;;;14.52;3.70;;;;;;;0.01;0.00;59042.03;10321228;28;20432;-63
2021/07/17 11:39:51;;;;;;;13.48;3.95;;;;;;;0.01;0.00;59042.03;10322380;28;20090;-63
2021/07/17 11:44:54;;;;;;;6.32;4.00;;;;;;;0.01;0.00;59042.03;10321585;28;20044;-63
2021/07/17 11:49:54;;;;;;;11.23;4.55;;;;;;;0.01;0.00;59042.03;10321571;28;20070;-63
2021/07/17 11:54:56;;;;;;;10.23;4.03;;;;;;;0.01;0.00;59042.03;10320408;28;20045;-63
2021/07/17 12:00:07;;;;;;;8.77;3.63;;;;;;;0.01;0.00;59042.03;10320369;28;20080;-63
2021/07/17 12:05:22;;;;;;;6.40;3.75;;;;;;;0.01;0.00;59042.03;10320615;28;20049;-62
2021/07/17 12:10:23;;;;;;;16.20;3.72;;;;;;;0.01;0.00;59042.03;10320438;28;20055;-63
2021/07/17 12:15:25;;;;;;;16.80;3.58;;;;;;;0.01;0.00;59042.03;10320364;28;20056;-64
2021/07/17 12:20:26;;;;;;;12.82;3.88;;;;;;;0.01;0.00;59042.03;10320085;28;20072;-63
2021/07/17 12:25:28;;;;;;;11.05;4.30;;;;;;;0.01;0.00;59042.03;10301737;28;20045;-63
2021/07/17 12:30:30;;;;;;;7.60;4.20;;;;;;;0.01;0.00;59042.03;10319577;28;20482;-63
2021/07/17 12:35:29;;;;;;;5.18;3.45;;;;;;;0.01;0.00;59042.03;10318904;28;20055;-63
2021/07/17 12:40:28;;;;;;;7.13;3.40;;;;;;;0.01;0.00;59042.03;10317864;28;20084;-63
2021/07/17 12:45:28;;;;;;;7.88;3.22;;;;;;;0.01;0.00;59042.03;10315840;28;20080;-63
2021/07/17 12:50:28;;;;;;;9.70;3.30;;;;;;;0.01;0.00;59042.03;10319785;28;20051;-63
2021/07/17 12:55:26;;;;;;;9.27;4.05;;;;;;;0.01;0.00;59042.03;10318435;28;20044;-63
2021/07/17 13:00:25;;;;;;;10.68;4.20;;;;;;;0.01;0.00;59042.03;10318220;28;20068;-63
2021/07/17 13:05:50;;;;;;;9.95;3.78;;;;;;;0.01;0.00;59042.03;10318018;28;20049;-63
2021/07/17 13:10:49;;;;;;;11.57;3.85;;;;;;;0.01;0.00;59042.03;10317126;28;20505;-63
2021/07/17 13:15:52;;;;;;;11.50;4.15;;;;;;;0.01;0.00;59042.03;10317600;28;20056;-63
2021/07/17 13:21:06;;;;;;;20.65;4.07;;;;;;;0.01;0.00;59042.03;10316835;28;20045;-65
2021/07/17 13:26:17;;;;;;;13.18;3.63;;;;;;;0.01;0.00;59042.03;10317194;28;20513;-63
2021/07/17 13:31:18;;;;;;;11.20;3.53;;;;;;;0.01;0.00;59042.03;10316965;28;20044;-64
2021/07/17 13:36:23;;;;;;;6.35;3.58;;;;;;;0.01;0.00;59042.03;10316975;28;20048;-63
2021/07/17 13:41:24;;;;;;;11.02;3.60;;;;;;;0.01;0.00;59042.03;10314516;28;20048;-64
2021/07/17 13:46:23;;;;;;;10.45;3.63;;;;;;;0.01;0.00;59042.03;10308113;28;20068;-65
2021/07/17 13:51:32;;;;;;;10.85;3.70;;;;;;;0.01;0.00;59042.03;10312833;28;20076;-65
2021/07/17 13:56:30;;;;;;;9.52;3.60;;;;;;;0.01;0.00;59042.03;10313534;28;20466;-64
2021/07/17 14:01:31;;;;;;;12.73;2.95;;;;;;;0.01;0.00;59042.03;10315867;28;20162;-65
2021/07/17 14:06:32;;;;;;;16.92;3.88;;;;;;;0.01;0.00;59042.03;10316755;28;20048;-65
2021/07/17 14:11:34;;;;;;;7.72;3.78;;;;;;;0.01;0.00;59042.03;10316266;28;20071;-65
2021/07/17 14:16:34;;;;;;;9.25;3.83;;;;;;;0.01;0.00;59042.03;10314073;28;20076;-64
2021/07/17 14:21:35;;;;;;;15.48;4.10;;;;;;;0.01;0.00;59042.03;10314479;28;20041;-64
2021/07/17 14:26:34;;;;;;;17.13;3.47;;;;;;;0.01;0.00;59042.03;10313050;28;20071;-64
2021/07/17 14:31:34;;;;;;;9.93;3.20;;;;;;;0.01;0.00;59042.03;10314438;28;20076;-64
2021/07/17 14:36:33;;;;;;;8.32;3.40;;;;;;;0.01;0.00;59042.03;10314224;28;20057;-65
2021/07/17 14:41:33;;;;;;;11.05;4.32;;;;;;;0.01;0.00;59042.03;10313990;28;20539;-64
2021/07/17 14:46:32;;;;;;;14.75;4.05;;;;;;;0.01;0.00;59042.03;10315164;28;20049;-64
2021/07/17 14:51:31;;;;;;;15.50;3.85;;;;;;;0.01;0.00;59042.03;10313735;28;20072;-64
2021/07/17 14:56:33;;;;;;;12.93;3.70;;;;;;;0.01;0.00;59042.03;10313120;28;20466;-65
2021/07/17 15:01:32;;;;;;;11.00;3.65;;;;;;;0.01;0.00;59042.03;10296647;28;20079;-65
2021/07/17 15:06:31;;;;;;;6.00;3.13;;;;;;;0.01;0.00;59042.03;10313621;28;20052;-62
2021/07/17 15:11:30;;;;;;;8.73;4.22;;;;;;;0.01;0.00;59042.03;10318616;28;20461;-62
2021/07/17 15:16:30;;;;;;;7.13;3.03;;;;;;;0.01;0.00;59042.03;10319380;28;20055;-63
2021/07/17 15:21:29;;;;;;;8.63;3.88;;;;;;;0.01;0.00;59042.03;10321764;28;20075;-63
2021/07/17 15:26:28;;;;;;;5.97;3.08;;;;;;;0.01;0.00;59042.03;10322059;28;20045;-63
2021/07/17 15:31:27;;;;;;;8.10;3.50;;;;;;;0.01;0.00;59042.03;10322160;28;20064;-63
2021/07/17 15:36:27;;;;;;;10.20;3.47;;;;;;;0.01;0.00;59042.03;10321303;28;20044;-63
2021/07/17 15:41:26;;;;;;;7.75;2.95;;;;;;;0.01;0.00;59042.03;10318137;28;20065;-62
2021/07/17 15:46:25;;;;;;;9.27;3.75;;;;;;;0.01;0.00;59042.03;10312468;28;20485;-61
2021/07/17 15:51:24;;;;;;;12.90;5.13;;;;;;;0.01;0.00;59042.03;10311756;28;20068;-62
2021/07/17 15:56:24;;;;;;;14.02;3.72;;;;;;;0.01;0.00;59042.03;10318522;28;20495;-63
2021/07/17 16:01:22;;;;;;;15.45;3.88;;;;;;;0.01;0.00;59042.03;10320113;28;20079;-65
2021/07/17 16:06:22;;;;;;;7.63;3.10;;;;;;;0.01;0.00;59042.03;10320823;28;20055;-64
2021/07/17 16:11:21;;;;;;;12.20;4.25;;;;;;;0.01;0.00;59042.03;10316210;28;20056;-62
2021/07/17 16:16:22;;;;;;;10.55;4.53;;;;;;;0.01;0.00;59042.03;10318555;28;20068;-63
2021/07/17 16:21:23;;;;;;;6.07;3.28;;;;;;;0.01;0.00;59042.03;10317645;28;20119;-63
2021/07/17 16:26:22;;;;;;;7.82;3.20;;;;;;;0.01;0.00;59042.03;10313632;28;20076;-63
2021/07/17 16:31:22;;;;;;;10.55;3.83;;;;;;;0.01;0.00;59042.03;10315985;28;20068;-63
2021/07/17 16:36:21;;;;;;;7.03;3.65;;;;;;;0.01;0.00;59042.03;10318865;28;20516;-63
2021/07/17 16:41:20;;;;;;;10.50;3.33;;;;;;;0.01;0.00;59042.03;10318091;28;20076;-63
2021/07/17 16:46:19;;;;;;;10.93;3.80;;;;;;;0.01;0.00;59042.03;10318539;28;20051;-64
2021/07/17 16:51:19;;;;;;;12.55;3.80;;;;;;;0.01;0.00;59042.03;10318737;28;20044;-64
2021/07/17 16:56:18;;;;;;;17.13;4.88;;;;;;;0.01;0.00;59042.03;10317694;28;20441;-66
2021/07/17 17:01:17;;;;;;;11.23;4.28;;;;;;;0.01;0.00;59042.03;10317642;28;20493;-65
2021/07/17 17:06:16;;;;;;;8.57;3.60;;;;;;;0.01;0.00;59042.03;10317473;28;20068;-65
2021/07/17 17:11:16;;;;;;;8.20;4.07;;;;;;;0.01;0.00;59042.03;10318195;28;20040;-65
2021/07/17 17:16:15;;;;;;;8.40;3.60;;;;;;;0.01;0.00;59042.03;10317987;28;20429;-66
2021/07/17 17:21:14;;;;;;;10.90;4.10;;;;;;;0.01;0.00;59042.03;10309725;28;20064;-68
2021/07/17 17:26:12;;;;;;;6.65;3.78;;;;;;;0.01;0.00;59042.03;10306857;28;20075;-68
2021/07/17 17:31:12;;;;;;;9.50;5.35;;;;;;;0.01;0.00;59042.03;10306781;28;20461;-66
2021/07/17 17:36:11;;;;;;;11.88;3.25;;;;;;;0.01;0.00;59042.03;10312610;28;20080;-65
2021/07/17 17:41:24;;;;;;;12.02;4.78;;;;;;;0.01;0.00;59042.03;10314542;28;20067;-65
2021/07/17 17:46:24;;;;;;;10.95;4.00;;;;;;;0.01;0.00;59042.03;10314119;28;20072;-66
2021/07/17 17:51:23;;;;;;;7.60;3.60;;;;;;;0.01;0.00;59042.03;10311542;28;20057;-65
2021/07/17 17:56:24;;;;;;;6.50;3.88;;;;;;;0.01;0.00;59042.03;10303107;28;20076;-65
2021/07/17 18:01:25;;;;;;;6.45;3.60;;;;;;;0.01;0.00;59042.03;10312242;28;20067;-65
2021/07/17 18:06:24;;;;;;;8.23;3.63;;;;;;;0.01;0.00;59042.03;10310890;28;20075;-66
2021/07/17 18:11:23;;;;;;;9.23;3.90;;;;;;;0.01;0.00;59042.03;10303773;28;20072;-64
2021/07/17 18:16:22;;;;;;;11.45;3.85;;;;;;;0.01;0.00;59042.03;10307374;28;20072;-66
2021/07/17 18:21:23;;;;;;;7.53;3.30;;;;;;;0.01;0.00;59042.03;10307370;28;20084;-65
2021/07/17 18:26:22;;;;;;;7.50;3.47;;;;;;;0.01;0.00;59042.03;10307377;28;20545;-65
2021/07/17 18:31:20;;;;;;;13.30;3.97;;;;;;;0.01;0.00;59042.03;10310174;28;20064;-65
2021/07/17 18:36:19;;;;;;;10.85;3.50;;;;;;;0.01;0.00;59042.03;10309547;28;20485;-64
2021/07/17 18:41:20;;;;;;;7.07;3.83;;;;;;;0.01;0.00;59042.03;10309086;28;20079;-65
2021/07/17 18:46:28;;;;;;;10.35;4.53;;;;;;;0.01;0.00;59042.03;10315449;28;20075;-66
2021/07/17 18:51:27;;;;;;;14.20;4.97;;;;;;;0.01;0.00;59042.03;10317486;28;20068;-65
2021/07/17 18:56:28;;;;;;;18.45;4.80;;;;;;;0.01;0.00;59042.03;10319561;28;20478;-65
2021/07/17 19:01:26;;;;;;;12.48;5.57;;;;;;;0.01;0.00;59042.03;10312051;28;20099;-65
2021/07/17 19:06:25;;;;;;;9.00;5.15;;;;;;;0.01;0.00;59042.03;10314192;28;20474;-65
2021/07/17 19:11:24;;;;;;;16.50;5.22;;;;;;;0.01;0.00;59042.03;10311967;28;20079;-65
2021/07/17 19:16:28;;;;;;;9.38;5.45;;;;;;;0.01;0.00;59042.03;10317564;28;20068;-66
2021/07/17 19:21:27;;;;;;;12.43;4.85;;;;;;;0.01;0.00;59042.03;10311605;28;20071;-65
2021/07/17 19:26:26;;;;;;;8.77;4.13;;;;;;;0.01;0.00;59042.03;10314362;28;20071;-63
2021/07/17 19:31:25;;;;;;;12.68;4.75;;;;;;;0.01;0.00;59042.03;10309796;28;20068;-64
2021/07/17 19:36:25;;;;;;;10.15;4.07;;;;;;;0.01;0.00;59042.03;10310225;28;20584;-65
2021/07/17 19:41:24;;;;;;;16.23;4.70;;;;;;;0.01;0.00;59042.03;10312224;28;20071;-66
2021/07/17 19:46:23;;;;;;;8.38;3.55;;;;;;;0.01;0.00;59042.03;10314483;28;20126;-65
2021/07/17 19:51:22;;;;;;;9.18;3.63;;;;;;;0.01;0.00;59042.03;10312435;28;20072;-65
2021/07/17 19:56:22;;;;;;;4.50;3.55;;;;;;;0.01;0.00;59042.03;10301648;28;20044;-65
2021/07/17 20:01:21;;;;;;;5.80;4.07;;;;;;;0.01;0.00;59042.03;10313337;28;20485;-64
2021/07/17 20:06:20;;;;;;;7.60;3.55;;;;;;;0.01;0.00;59042.03;10311150;28;20072;-66
2021/07/17 20:11:18;;;;;;;6.70;3.13;;;;;;;0.01;0.00;59042.03;10318332;28;20497;-65
2021/07/17 20:16:19;;;;;;;12.00;3.92;;;;;;;0.01;0.00;59042.03;10311988;28;20064;-64
2021/07/17 20:21:18;;;;;;;8.18;3.60;;;;;;;0.01;0.00;59042.03;10317549;28;20079;-66
2021/07/17 20:26:16;;;;;;;13.82;3.75;;;;;;;0.01;0.00;59042.03;10296128;28;20072;-66
2021/07/17 20:31:15;;;;;;;8.38;3.30;;;;;;;0.01;0.00;59042.03;10316052;28;20080;-65
2021/07/17 20:36:15;;;;;;;8.30;3.53;;;;;;;0.01;0.00;59042.03;10305742;28;20493;-65
2021/07/17 20:41:14;;;;;;;9.88;5.10;;;;;;;0.01;0.00;59042.03;10311453;28;20076;-65
2021/07/17 20:46:13;;;;;;;8.68;4.18;;;;;;;0.01;0.00;59042.03;10311008;28;20481;-68
2021/07/17 20:51:12;;;;;;;7.38;3.13;;;;;;;0.01;0.00;59042.03;10310118;28;20079;-67
2021/07/17 20:56:12;;;;;;;8.80;3.55;;;;;;;0.01;0.00;59042.03;10309937;28;20468;-66
2021/07/17 21:01:11;;;;;;;13.52;3.35;;;;;;;0.01;0.00;59042.03;10310833;28;20072;-67
2021/07/17 21:06:11;;;;;;;15.32;3.65;;;;;;;0.01;0.00;59042.03;10285594;28;20060;-67
2021/07/17 21:11:11;;;;;;;8.50;3.55;;;;;;;0.01;0.00;59042.03;10297662;28;20055;-67
2021/07/17 21:16:10;;;;;;;14.80;3.58;;;;;;;0.01;0.00;59042.03;10312159;28;20078;-67
2021/07/17 21:21:09;;;;;;;9.27;4.05;;;;;;;0.01;0.00;59042.03;10314058;28;20072;-68
2021/07/17 21:26:09;;;;;;;8.43;3.63;;;;;;;0.01;0.00;59042.03;10282602;28;20083;-67
2021/07/17 21:31:10;;;;;;;10.15;3.55;;;;;;;0.01;0.00;59042.03;10297559;28;20469;-68
2021/07/17 21:36:09;;;;;;;9.38;3.60;;;;;;;0.01;0.00;59042.03;10311383;28;20083;-67
2021/07/17 21:41:11;;;;;;;9.95;3.83;;;;;;;0.01;0.00;59042.03;10308843;28;20071;-67
2021/07/17 21:46:11;;;;;;;6.25;3.88;;;;;;;0.01;0.00;59042.03;10309324;28;20483;-67
2021/07/17 21:51:10;;;;;;;14.43;3.83;;;;;;;0.01;0.00;59042.03;10308957;28;20076;-66
2021/07/17 21:56:09;;;;;;;14.77;7.20;;;;;;;0.01;0.00;59042.03;10305921;28;20068;-68
2021/07/17 22:01:08;;;;;;;10.85;4.55;;;;;;;0.01;0.00;59042.03;10285167;28;20182;-66
2021/07/17 22:06:09;;;;;;;8.10;4.25;;;;;;;0.01;0.00;59042.03;10305708;28;20068;-67
2021/07/17 22:11:09;;;;;;;12.52;4.05;;;;;;;0.01;0.00;59042.03;10303661;28;20076;-68
2021/07/17 22:16:09;;;;;;;13.70;4.13;;;;;;;0.01;0.00;59042.03;10310056;28;20060;-67
2021/07/17 22:21:11;;;;;;;16.50;3.90;;;;;;;0.01;0.00;59042.03;10316045;28;20076;-68
2021/07/17 22:26:10;;;;;;;6.80;3.65;;;;;;;0.01;0.00;59042.03;10316141;28;20055;-67
2021/07/17 22:31:09;;;;;;;8.82;3.45;;;;;;;0.01;0.00;59042.03;10314075;28;20079;-67
2021/07/17 22:36:10;;;;;;;11.80;3.78;;;;;;;0.01;0.00;59042.03;10311266;28;20072;-67
2021/07/17 22:41:09;;;;;;;4.93;2.83;;;;;;;0.01;0.00;59042.03;10311823;28;20099;-67
2021/07/17 22:46:08;;;;;;;7.55;3.88;;;;;;;0.01;0.00;59042.03;10314845;28;20043;-67
2021/07/17 22:51:06;;;;;;;15.43;3.47;;;;;;;0.01;0.00;59042.03;10306967;28;20049;-67
2021/07/17 22:56:06;;;;;;;11.05;3.30;;;;;;;0.01;0.00;59042.03;10315421;28;20044;-67
2021/07/17 23:01:05;;;;;;;11.10;3.40;;;;;;;0.01;0.00;59042.03;10315005;28;20078;-68
2021/07/17 23:06:04;;;;;;;11.20;4.15;;;;;;;0.01;0.00;59042.03;10312987;28;20556;-68
2021/07/17 23:11:03;;;;;;;7.15;4.00;;;;;;;0.01;0.00;59042.03;10312495;28;20518;-67
2021/07/17 23:16:04;;;;;;;9.30;3.17;;;;;;;0.01;0.00;59042.03;10312748;28;20079;-67
2021/07/17 23:21:02;;;;;;;7.15;2.95;;;;;;;0.01;0.00;59042.03;10312400;28;20083;-68
2021/07/17 23:26:01;;;;;;;10.27;3.53;;;;;;;0.01;0.00;59042.03;10313273;28;20458;-68
2021/07/17 23:31:00;;;;;;;7.75;4.05;;;;;;;0.01;0.00;59042.03;10319269;28;20036;-67
2021/07/17 23:36:00;;;;;;;13.60;3.65;;;;;;;0.01;0.00;59042.03;10279833;28;20060;-67
2021/07/17 23:40:59;;;;;;;8.75;3.33;;;;;;;0.01;0.00;59042.03;10279680;28;20505;-67